createdAt,value
2018-11-27T00:00:29.616Z,1014.84
2018-11-27T00:01:29.580Z,1014.81
2018-11-27T00:02:29.706Z,1014.83
2018-11-27T00:03:29.599Z,1014.79
2018-11-27T00:04:30.428Z,1014.84
2018-11-27T00:05:29.753Z,1014.82
2018-11-27T00:06:29.941Z,1014.85
2018-11-27T00:07:29.742Z,1014.85
2018-11-27T00:08:29.545Z,1014.85
2018-11-27T00:09:29.685Z,1014.93
2018-11-27T00:10:29.563Z,1014.87
2018-11-27T00:11:29.503Z,1014.86
2018-11-27T00:12:29.554Z,1014.87
2018-11-27T00:13:29.646Z,1014.9
2018-11-27T00:14:29.630Z,1014.87
2018-11-27T00:15:29.545Z,1014.82
2018-11-27T00:16:29.807Z,1014.85
2018-11-27T00:17:29.588Z,1014.88
2018-11-27T00:18:29.534Z,1014.84
2018-11-27T00:19:29.586Z,1014.9
2018-11-27T00:20:29.529Z,1014.94
2018-11-27T00:21:29.502Z,1014.91
2018-11-27T00:22:30.363Z,1014.93
2018-11-27T00:23:29.612Z,1014.94
2018-11-27T00:24:29.966Z,1015
2018-11-27T00:25:29.727Z,1015
2018-11-27T00:26:29.632Z,1014.95
2018-11-27T00:27:29.681Z,1014.99
2018-11-27T00:28:29.636Z,1015.03
2018-11-27T00:29:29.720Z,1015.02
2018-11-27T00:30:29.519Z,1014.97
2018-11-27T00:31:29.568Z,1015.04
2018-11-27T00:32:29.590Z,1015.06
2018-11-27T00:33:29.518Z,1015.12
2018-11-27T00:34:29.526Z,1015.09
2018-11-27T00:35:29.877Z,1015.12
2018-11-27T00:36:29.669Z,1015.15
2018-11-27T00:37:29.651Z,1015.13
2018-11-27T00:38:29.555Z,1015.13
2018-11-27T00:39:29.519Z,1015.16
2018-11-27T00:40:29.590Z,1015.12
2018-11-27T00:41:29.551Z,1015.15
2018-11-27T00:42:29.558Z,1015.15
2018-11-27T00:43:29.517Z,1015.19
2018-11-27T00:44:29.569Z,1015.11
2018-11-27T00:45:29.493Z,1015.18
2018-11-27T00:46:29.610Z,1015.17
2018-11-27T00:47:29.659Z,1015.22
2018-11-27T00:48:29.883Z,1015.22
2018-11-27T00:49:29.608Z,1015.22
2018-11-27T00:50:29.686Z,1015.23
2018-11-27T00:51:29.492Z,1015.24
2018-11-27T00:52:29.475Z,1015.25
2018-11-27T00:53:29.481Z,1015.28
2018-11-27T00:54:29.470Z,1015.25
2018-11-27T00:55:29.549Z,1015.23
2018-11-27T00:56:29.453Z,1015.28
2018-11-27T00:57:29.492Z,1015.3
2018-11-27T00:58:29.523Z,1015.29
2018-11-27T00:59:29.431Z,1015.28
2018-11-27T01:00:29.511Z,1015.31
2018-11-27T01:01:29.452Z,1015.3
2018-11-27T01:02:29.516Z,1015.32
2018-11-27T01:03:29.477Z,1015.3
2018-11-27T01:04:29.653Z,1015.33
2018-11-27T01:05:29.491Z,1015.34
2018-11-27T01:06:29.483Z,1015.37
2018-11-27T01:07:29.506Z,1015.35
2018-11-27T01:08:29.551Z,1015.41
2018-11-27T01:09:29.746Z,1015.43
2018-11-27T01:10:29.674Z,1015.43
2018-11-27T01:11:29.478Z,1015.42
2018-11-27T01:12:29.670Z,1015.45
2018-11-27T01:13:29.462Z,1015.44
2018-11-27T01:14:29.550Z,1015.45
2018-11-27T01:15:29.431Z,1015.48
2018-11-27T01:16:29.439Z,1015.46
2018-11-27T01:17:29.499Z,1015.44
2018-11-27T01:18:29.550Z,1015.47
2018-11-27T01:19:29.537Z,1015.45
2018-11-27T01:20:29.621Z,1015.49
2018-11-27T01:21:29.527Z,1015.51
2018-11-27T01:22:30.259Z,1015.51
2018-11-27T01:23:29.715Z,1015.52
2018-11-27T01:24:29.482Z,1015.51
2018-11-27T01:25:29.526Z,1015.57
2018-11-27T01:26:29.605Z,1015.6
2018-11-27T01:27:29.458Z,1015.61
2018-11-27T01:28:29.553Z,1015.58
2018-11-27T01:29:29.694Z,1015.55
2018-11-27T01:30:29.807Z,1015.59
2018-11-27T01:31:29.508Z,1015.63
2018-11-27T01:32:29.453Z,1015.62
2018-11-27T01:33:29.621Z,1015.58
2018-11-27T01:34:29.469Z,1015.63
2018-11-27T01:35:29.529Z,1015.59
2018-11-27T01:36:29.407Z,1015.63
2018-11-27T01:37:29.498Z,1015.65
2018-11-27T01:38:29.524Z,1015.69
2018-11-27T01:39:29.539Z,1015.66
2018-11-27T01:40:29.461Z,1015.72
2018-11-27T01:41:29.469Z,1015.72
2018-11-27T01:42:29.577Z,1015.68
2018-11-27T01:43:29.398Z,1015.75
2018-11-27T01:44:29.623Z,1015.79
2018-11-27T01:45:29.686Z,1015.84
2018-11-27T01:46:29.622Z,1015.8
2018-11-27T01:47:29.476Z,1015.8
2018-11-27T01:48:29.461Z,1015.82
2018-11-27T01:49:29.366Z,1015.84
2018-11-27T01:50:29.612Z,1015.85
2018-11-27T01:51:29.492Z,1015.84
2018-11-27T01:52:29.574Z,1015.83
2018-11-27T01:53:29.358Z,1015.88
2018-11-27T01:54:29.398Z,1015.84
2018-11-27T01:55:29.494Z,1015.85
2018-11-27T01:56:29.415Z,1015.91
2018-11-27T01:57:29.519Z,1015.87
2018-11-27T01:58:29.400Z,1015.91
2018-11-27T01:59:29.386Z,1015.85
2018-11-27T02:00:29.427Z,1015.9
2018-11-27T02:01:29.355Z,1015.92
2018-11-27T02:02:29.409Z,1015.89
2018-11-27T02:03:29.568Z,1015.85
2018-11-27T02:04:29.395Z,1015.88
2018-11-27T02:05:29.479Z,1015.89
2018-11-27T02:06:29.493Z,1015.87
2018-11-27T02:07:29.446Z,1015.9
2018-11-27T02:08:29.441Z,1015.86
2018-11-27T02:09:29.491Z,1015.88
2018-11-27T02:10:29.413Z,1015.87
2018-11-27T02:11:29.805Z,1015.9
2018-11-27T02:12:29.506Z,1015.89
2018-11-27T02:13:29.970Z,1015.87
2018-11-27T02:14:29.569Z,1015.85
2018-11-27T02:15:30.119Z,1015.82
2018-11-27T02:16:29.375Z,1015.86
2018-11-27T02:17:29.521Z,1015.84
2018-11-27T02:18:29.530Z,1015.84
2018-11-27T02:19:29.372Z,1015.84
2018-11-27T02:20:29.388Z,1015.84
2018-11-27T02:21:29.362Z,1015.87
2018-11-27T02:22:29.368Z,1015.87
2018-11-27T02:23:29.390Z,1015.86
2018-11-27T02:24:29.405Z,1015.82
2018-11-27T02:25:29.391Z,1015.78
2018-11-27T02:26:29.363Z,1015.79
2018-11-27T02:27:29.387Z,1015.8
2018-11-27T02:28:29.337Z,1015.83
2018-11-27T02:29:29.426Z,1015.78
2018-11-27T02:30:29.427Z,1015.76
2018-11-27T02:31:29.409Z,1015.83
2018-11-27T02:32:29.336Z,1015.85
2018-11-27T02:33:29.331Z,1015.79
2018-11-27T02:34:29.437Z,1015.81
2018-11-27T02:35:29.645Z,1015.81
2018-11-27T02:36:29.613Z,1015.81
2018-11-27T02:37:29.356Z,1015.83
2018-11-27T02:38:29.588Z,1015.85
2018-11-27T02:39:29.476Z,1015.87
2018-11-27T02:40:29.474Z,1015.82
2018-11-27T02:41:29.459Z,1015.87
2018-11-27T02:42:29.439Z,1015.85
2018-11-27T02:43:29.693Z,1015.84
2018-11-27T02:44:29.504Z,1015.83
2018-11-27T02:45:29.407Z,1015.87
2018-11-27T02:46:29.507Z,1015.87
2018-11-27T02:47:29.721Z,1015.89
2018-11-27T02:48:29.633Z,1015.87
2018-11-27T02:49:29.332Z,1015.9
2018-11-27T02:50:29.461Z,1015.89
2018-11-27T02:51:29.347Z,1015.88
2018-11-27T02:52:29.526Z,1015.9
2018-11-27T02:53:29.542Z,1015.9
2018-11-27T02:54:29.598Z,1015.91
2018-11-27T02:55:29.502Z,1015.93
2018-11-27T02:56:29.368Z,1015.91
2018-11-27T02:57:29.337Z,1015.91
2018-11-27T02:58:29.516Z,1015.94
2018-11-27T02:59:29.385Z,1015.91
2018-11-27T03:00:29.318Z,1015.89
2018-11-27T03:01:29.333Z,1015.89
2018-11-27T03:02:29.476Z,1015.93
2018-11-27T03:03:29.495Z,1015.89
2018-11-27T03:04:29.535Z,1015.91
2018-11-27T03:05:29.320Z,1015.94
2018-11-27T03:06:29.306Z,1015.95
2018-11-27T03:07:29.564Z,1015.9
2018-11-27T03:08:29.424Z,1015.93
2018-11-27T03:09:29.350Z,1015.92
2018-11-27T03:10:29.328Z,1015.92
2018-11-27T03:11:29.482Z,1015.96
2018-11-27T03:12:29.491Z,1015.86
2018-11-27T03:13:29.375Z,1015.89
2018-11-27T03:14:29.568Z,1015.94
2018-11-27T03:15:29.480Z,1015.9
2018-11-27T03:16:29.312Z,1015.92
2018-11-27T03:17:29.347Z,1015.88
2018-11-27T03:18:29.533Z,1015.89
2018-11-27T03:19:29.330Z,1015.9
2018-11-27T03:20:29.630Z,1015.91
2018-11-27T03:21:29.568Z,1015.93
2018-11-27T03:22:29.254Z,1015.94
2018-11-27T03:23:29.348Z,1015.96
2018-11-27T03:24:29.292Z,1015.95
2018-11-27T03:25:29.473Z,1015.98
2018-11-27T03:26:29.701Z,1016
2018-11-27T03:27:29.418Z,1015.99
2018-11-27T03:28:29.345Z,1016.02
2018-11-27T03:29:29.746Z,1016.08
2018-11-27T03:30:29.575Z,1016.1
2018-11-27T03:31:29.522Z,1016.06
2018-11-27T03:32:29.252Z,1016.05
2018-11-27T03:33:29.533Z,1016.05
2018-11-27T03:34:29.233Z,1016.07
2018-11-27T03:35:29.407Z,1016.09
2018-11-27T03:36:29.242Z,1016.09
2018-11-27T03:37:29.235Z,1016.09
2018-11-27T03:38:29.230Z,1016.16
2018-11-27T03:39:29.602Z,1016.15
2018-11-27T03:40:29.529Z,1016.16
2018-11-27T03:41:29.433Z,1016.18
2018-11-27T03:42:29.492Z,1016.15
2018-11-27T03:43:29.394Z,1016.21
2018-11-27T03:44:29.573Z,1016.22
2018-11-27T03:45:29.446Z,1016.24
2018-11-27T03:46:29.284Z,1016.21
2018-11-27T03:47:29.284Z,1016.21
2018-11-27T03:48:29.493Z,1016.25
2018-11-27T03:49:29.263Z,1016.27
2018-11-27T03:50:29.793Z,1016.24
2018-11-27T03:51:29.439Z,1016.27
2018-11-27T03:52:29.290Z,1016.27
2018-11-27T03:53:29.284Z,1016.28
2018-11-27T03:54:29.249Z,1016.3
2018-11-27T03:55:29.260Z,1016.26
2018-11-27T03:56:29.278Z,1016.29
2018-11-27T03:57:29.349Z,1016.27
2018-11-27T03:58:29.227Z,1016.29
2018-11-27T03:59:29.260Z,1016.3
2018-11-27T04:00:29.278Z,1016.27
2018-11-27T04:01:29.306Z,1016.29
2018-11-27T04:02:29.223Z,1016.27
2018-11-27T04:03:29.428Z,1016.31
2018-11-27T04:04:29.205Z,1016.33
2018-11-27T04:05:29.414Z,1016.37
2018-11-27T04:06:29.209Z,1016.3
2018-11-27T04:07:29.206Z,1016.31
2018-11-27T04:08:29.266Z,1016.33
2018-11-27T04:09:29.201Z,1016.32
2018-11-27T04:10:29.218Z,1016.32
2018-11-27T04:11:29.209Z,1016.36
2018-11-27T04:12:29.191Z,1016.34
2018-11-27T04:13:29.263Z,1016.36
2018-11-27T04:14:29.205Z,1016.39
2018-11-27T04:15:29.305Z,1016.4
2018-11-27T04:16:29.460Z,1016.4
2018-11-27T04:17:29.331Z,1016.42
2018-11-27T04:18:29.396Z,1016.4
2018-11-27T04:19:29.299Z,1016.41
2018-11-27T04:20:29.426Z,1016.43
2018-11-27T04:21:29.347Z,1016.45
2018-11-27T04:22:29.420Z,1016.44
2018-11-27T04:23:29.434Z,1016.44
2018-11-27T04:24:29.193Z,1016.47
2018-11-27T04:25:29.201Z,1016.47
2018-11-27T04:26:29.385Z,1016.49
2018-11-27T04:27:29.219Z,1016.5
2018-11-27T04:28:29.390Z,1016.56
2018-11-27T04:29:29.310Z,1016.49
2018-11-27T04:30:29.303Z,1016.56
2018-11-27T04:31:29.348Z,1016.52
2018-11-27T04:32:29.194Z,1016.53
2018-11-27T04:33:29.257Z,1016.55
2018-11-27T04:34:29.219Z,1016.55
2018-11-27T04:35:29.175Z,1016.54
2018-11-27T04:36:29.445Z,1016.55
2018-11-27T04:37:29.211Z,1016.47
2018-11-27T04:38:29.190Z,1016.51
2018-11-27T04:39:29.335Z,1016.51
2018-11-27T04:40:29.327Z,1016.5
2018-11-27T04:41:29.186Z,1016.47
2018-11-27T04:42:29.272Z,1016.56
2018-11-27T04:43:29.292Z,1016.58
2018-11-27T04:44:29.273Z,1016.59
2018-11-27T04:45:29.244Z,1016.52
2018-11-27T04:46:29.170Z,1016.58
2018-11-27T04:47:29.165Z,1016.55
2018-11-27T04:48:29.274Z,1016.57
2018-11-27T04:49:29.308Z,1016.5
2018-11-27T04:50:29.993Z,1016.55
2018-11-27T04:51:29.192Z,1016.54
2018-11-27T04:52:29.281Z,1016.51
2018-11-27T04:53:29.170Z,1016.56
2018-11-27T04:54:29.187Z,1016.57
2018-11-27T04:55:29.162Z,1016.6
2018-11-27T04:56:29.271Z,1016.63
2018-11-27T04:57:29.374Z,1016.62
2018-11-27T04:58:29.437Z,1016.62
2018-11-27T04:59:29.346Z,1016.65
2018-11-27T05:00:29.282Z,1016.64
2018-11-27T05:01:29.318Z,1016.73
2018-11-27T05:02:30.474Z,1016.67
2018-11-27T05:03:29.128Z,1016.63
2018-11-27T05:04:29.206Z,1016.69
2018-11-27T05:05:29.270Z,1016.66
2018-11-27T05:06:29.311Z,1016.64
2018-11-27T05:07:29.145Z,1016.71
2018-11-27T05:08:29.159Z,1016.72
2018-11-27T05:09:29.200Z,1016.73
2018-11-27T05:10:29.148Z,1016.73
2018-11-27T05:11:29.182Z,1016.76
2018-11-27T05:12:29.197Z,1016.75
2018-11-27T05:13:29.409Z,1016.77
2018-11-27T05:14:29.103Z,1016.81
2018-11-27T05:15:29.190Z,1016.82
2018-11-27T05:16:29.152Z,1016.82
2018-11-27T05:17:29.309Z,1016.85
2018-11-27T05:18:29.340Z,1016.8
2018-11-27T05:19:29.261Z,1016.88
2018-11-27T05:20:29.189Z,1016.82
2018-11-27T05:21:29.198Z,1016.83
2018-11-27T05:22:29.137Z,1016.86
2018-11-27T05:23:29.276Z,1016.86
2018-11-27T05:24:29.251Z,1016.86
2018-11-27T05:25:29.106Z,1016.89
2018-11-27T05:26:29.343Z,1016.87
2018-11-27T05:27:29.483Z,1016.87
2018-11-27T05:28:29.243Z,1016.88
2018-11-27T05:29:29.170Z,1016.91
2018-11-27T05:30:29.114Z,1016.96
2018-11-27T05:31:29.097Z,1016.93
2018-11-27T05:32:29.129Z,1016.93
2018-11-27T05:33:29.112Z,1016.97
2018-11-27T05:34:29.242Z,1017
2018-11-27T05:35:29.116Z,1017.06
2018-11-27T05:36:29.137Z,1017.01
2018-11-27T05:37:29.179Z,1017.04
2018-11-27T05:38:29.083Z,1017.05
2018-11-27T05:39:29.129Z,1017.06
2018-11-27T05:40:29.113Z,1017.09
2018-11-27T05:41:29.113Z,1017.08
2018-11-27T05:42:29.100Z,1017.08
2018-11-27T05:43:29.103Z,1017.09
2018-11-27T05:44:29.101Z,1017.13
2018-11-27T05:45:29.069Z,1017.07
2018-11-27T05:46:29.101Z,1017.13
2018-11-27T05:47:29.132Z,1017.17
2018-11-27T05:48:29.117Z,1017.19
2018-11-27T05:49:29.468Z,1017.18
2018-11-27T05:50:29.116Z,1017.17
2018-11-27T05:51:29.083Z,1017.16
2018-11-27T05:52:29.112Z,1017.21
2018-11-27T05:53:29.145Z,1017.21
2018-11-27T05:54:29.159Z,1017.23
2018-11-27T05:55:29.118Z,1017.19
2018-11-27T05:56:29.193Z,1017.23
2018-11-27T05:57:29.247Z,1017.19
2018-11-27T05:58:29.178Z,1017.23
2018-11-27T05:59:29.200Z,1017.31
2018-11-27T06:00:29.154Z,1017.32
2018-11-27T06:01:29.143Z,1017.33
2018-11-27T06:02:29.090Z,1017.35
2018-11-27T06:03:29.512Z,1017.34
2018-11-27T06:04:29.164Z,1017.34
2018-11-27T06:05:29.166Z,1017.35
2018-11-27T06:06:29.268Z,1017.35
2018-11-27T06:07:29.139Z,1017.4
2018-11-27T06:08:29.094Z,1017.36
2018-11-27T06:09:29.222Z,1017.35
2018-11-27T06:10:29.279Z,1017.37
2018-11-27T06:11:29.584Z,1017.37
2018-11-27T06:12:29.486Z,1017.4
2018-11-27T06:13:29.127Z,1017.39
2018-11-27T06:14:29.102Z,1017.4
2018-11-27T06:15:29.108Z,1017.36
2018-11-27T06:16:29.071Z,1017.38
2018-11-27T06:17:29.285Z,1017.39
2018-11-27T06:18:29.248Z,1017.42
2018-11-27T06:19:29.180Z,1017.41
2018-11-27T06:20:29.283Z,1017.38
2018-11-27T06:21:29.382Z,1017.41
2018-11-27T06:22:29.075Z,1017.39
2018-11-27T06:23:29.312Z,1017.4
2018-11-27T06:24:29.235Z,1017.46
2018-11-27T06:25:29.089Z,1017.44
2018-11-27T06:26:29.098Z,1017.44
2018-11-27T06:27:29.126Z,1017.48
2018-11-27T06:28:29.081Z,1017.46
2018-11-27T06:29:29.268Z,1017.49
2018-11-27T06:30:29.751Z,1017.51
2018-11-27T06:31:29.160Z,1017.49
2018-11-27T06:32:29.087Z,1017.49
2018-11-27T06:33:29.201Z,1017.55
2018-11-27T06:34:29.206Z,1017.57
2018-11-27T06:35:29.104Z,1017.54
2018-11-27T06:36:29.037Z,1017.56
2018-11-27T06:37:29.147Z,1017.58
2018-11-27T06:38:29.242Z,1017.57
2018-11-27T06:39:29.192Z,1017.6
2018-11-27T06:40:29.080Z,1017.64
2018-11-27T06:41:29.253Z,1017.62
2018-11-27T06:42:29.217Z,1017.63
2018-11-27T06:43:29.154Z,1017.6
2018-11-27T06:44:29.164Z,1017.68
2018-11-27T06:45:29.180Z,1017.72
2018-11-27T06:46:29.264Z,1017.74
2018-11-27T06:47:29.181Z,1017.71
2018-11-27T06:48:29.008Z,1017.77
2018-11-27T06:49:29.205Z,1017.75
2018-11-27T06:50:29.017Z,1017.79
2018-11-27T06:51:29.375Z,1017.79
2018-11-27T06:52:29.217Z,1017.79
2018-11-27T06:53:29.261Z,1017.77
2018-11-27T06:54:29.040Z,1017.79
2018-11-27T06:55:29.850Z,1017.84
2018-11-27T06:56:29.764Z,1017.81
2018-11-27T06:57:29.216Z,1017.83
2018-11-27T06:58:29.205Z,1017.82
2018-11-27T06:59:29.152Z,1017.85
2018-11-27T07:00:29.140Z,1017.88
2018-11-27T07:01:29.040Z,1017.93
2018-11-27T07:02:29.187Z,1017.87
2018-11-27T07:03:29.160Z,1017.95
2018-11-27T07:04:29.001Z,1017.95
2018-11-27T07:05:29.002Z,1017.97
2018-11-27T07:06:29.027Z,1017.97
2018-11-27T07:07:28.984Z,1017.96
2018-11-27T07:08:28.972Z,1018.01
2018-11-27T07:09:28.994Z,1018.04
2018-11-27T07:10:28.983Z,1018.05
2018-11-27T07:11:29.059Z,1018.11
2018-11-27T07:12:28.996Z,1018.1
2018-11-27T07:13:29.302Z,1018.15
2018-11-27T07:14:28.989Z,1018.17
2018-11-27T07:15:29.074Z,1018.18
2018-11-27T07:16:28.982Z,1018.21
2018-11-27T07:17:29.179Z,1018.25
2018-11-27T07:18:28.998Z,1018.35
2018-11-27T07:19:28.976Z,1018.34
2018-11-27T07:20:28.970Z,1018.36
2018-11-27T07:21:28.976Z,1018.36
2018-11-27T07:22:29.099Z,1018.38
2018-11-27T07:23:29.014Z,1018.36
2018-11-27T07:24:28.938Z,1018.37
2018-11-27T07:25:28.989Z,1018.35
2018-11-27T07:26:29.071Z,1018.35
2018-11-27T07:27:29.317Z,1018.35
2018-11-27T07:28:29.313Z,1018.4
2018-11-27T07:29:29.070Z,1018.4
2018-11-27T07:30:28.994Z,1018.41
2018-11-27T07:31:29.362Z,1018.47
2018-11-27T07:32:29.111Z,1018.47
2018-11-27T07:33:29.183Z,1018.49
2018-11-27T07:34:31.718Z,1018.49
2018-11-27T07:35:29.000Z,1018.51
2018-11-27T07:36:29.173Z,1018.51
2018-11-27T07:37:29.322Z,1018.54
2018-11-27T07:38:29.115Z,1018.57
2018-11-27T07:39:29.131Z,1018.54
2018-11-27T07:40:29.055Z,1018.54
2018-11-27T07:41:29.113Z,1018.54
2018-11-27T07:42:28.984Z,1018.59
2018-11-27T07:43:29.187Z,1018.56
2018-11-27T07:44:29.016Z,1018.62
2018-11-27T07:45:28.933Z,1018.58
2018-11-27T07:46:29.131Z,1018.59
2018-11-27T07:47:29.059Z,1018.64
2018-11-27T07:48:29.007Z,1018.62
2018-11-27T07:49:29.201Z,1018.65
2018-11-27T07:50:29.037Z,1018.65
2018-11-27T07:51:29.006Z,1018.67
2018-11-27T07:52:28.997Z,1018.61
2018-11-27T07:53:29.211Z,1018.66
2018-11-27T07:54:28.908Z,1018.72
2018-11-27T07:55:28.986Z,1018.67
2018-11-27T07:56:28.985Z,1018.7
2018-11-27T07:57:28.968Z,1018.73
2018-11-27T07:58:28.937Z,1018.71
2018-11-27T07:59:29.017Z,1018.73
2018-11-27T08:00:29.000Z,1018.7
2018-11-27T08:01:29.080Z,1018.71
2018-11-27T08:02:29.037Z,1018.76
2018-11-27T08:03:29.227Z,1018.77
2018-11-27T08:04:28.947Z,1018.76
2018-11-27T08:05:29.141Z,1018.79
2018-11-27T08:06:29.165Z,1018.87
2018-11-27T08:07:28.932Z,1018.87
2018-11-27T08:08:29.123Z,1018.91
2018-11-27T08:09:29.129Z,1018.94
2018-11-27T08:10:29.108Z,1018.9
2018-11-27T08:11:29.041Z,1018.92
2018-11-27T08:12:29.356Z,1019
2018-11-27T08:13:28.983Z,1018.91
2018-11-27T08:14:28.932Z,1018.97
2018-11-27T08:15:28.929Z,1018.99
2018-11-27T08:16:29.059Z,1018.93
2018-11-27T08:17:29.083Z,1018.95
2018-11-27T08:18:29.000Z,1018.92
2018-11-27T08:19:28.939Z,1018.93
2018-11-27T08:20:29.048Z,1018.93
2018-11-27T08:21:28.936Z,1018.94
2018-11-27T08:22:28.867Z,1018.93
2018-11-27T08:23:28.880Z,1018.97
2018-11-27T08:24:29.007Z,1018.97
2018-11-27T08:25:29.272Z,1019.01
2018-11-27T08:26:29.019Z,1019
2018-11-27T08:27:28.877Z,1019.05
2018-11-27T08:28:29.044Z,1019.04
2018-11-27T08:29:28.962Z,1019.03
2018-11-27T08:30:29.411Z,1019.05
2018-11-27T08:31:28.874Z,1019.05
2018-11-27T08:32:29.116Z,1019.03
2018-11-27T08:33:29.125Z,1019.05
2018-11-27T08:34:29.252Z,1019.07
2018-11-27T08:35:28.954Z,1019.08
2018-11-27T08:36:28.889Z,1019.12
2018-11-27T08:37:28.880Z,1019.14
2018-11-27T08:38:28.924Z,1019.21
2018-11-27T08:39:29.086Z,1019.23
2018-11-27T08:40:29.054Z,1019.2
2018-11-27T08:41:28.928Z,1019.25
2018-11-27T08:42:28.885Z,1019.23
2018-11-27T08:43:28.950Z,1019.23
2018-11-27T08:44:28.973Z,1019.22
2018-11-27T08:45:28.854Z,1019.27
2018-11-27T08:46:28.966Z,1019.25
2018-11-27T08:47:29.015Z,1019.26
2018-11-27T08:48:28.841Z,1019.32
2018-11-27T08:49:29.291Z,1019.24
2018-11-27T08:50:28.956Z,1019.3
2018-11-27T08:51:28.906Z,1019.27
2018-11-27T08:52:29.007Z,1019.26
2018-11-27T08:53:28.956Z,1019.3
2018-11-27T08:54:28.863Z,1019.28
2018-11-27T08:55:28.970Z,1019.34
2018-11-27T08:56:28.975Z,1019.33
2018-11-27T08:57:28.878Z,1019.31
2018-11-27T08:58:28.844Z,1019.31
2018-11-27T08:59:28.823Z,1019.29
2018-11-27T09:00:29.253Z,1019.32
2018-11-27T09:01:28.801Z,1019.37
2018-11-27T09:02:28.878Z,1019.34
2018-11-27T09:03:29.226Z,1019.3
2018-11-27T09:04:28.934Z,1019.32
2018-11-27T09:05:29.014Z,1019.37
2018-11-27T09:06:28.863Z,1019.33
2018-11-27T09:07:29.064Z,1019.39
2018-11-27T09:08:29.082Z,1019.39
2018-11-27T09:09:29.189Z,1019.42
2018-11-27T09:10:28.991Z,1019.41
2018-11-27T09:11:28.851Z,1019.46
2018-11-27T09:12:28.862Z,1019.46
2018-11-27T09:13:28.806Z,1019.48
2018-11-27T09:14:28.977Z,1019.49
2018-11-27T09:15:29.017Z,1019.49
2018-11-27T09:16:28.870Z,1019.53
2018-11-27T09:17:28.980Z,1019.5
2018-11-27T09:18:29.381Z,1019.57
2018-11-27T09:19:28.981Z,1019.56
2018-11-27T09:20:28.781Z,1019.55
2018-11-27T09:21:29.189Z,1019.59
2018-11-27T09:22:28.881Z,1019.56
2018-11-27T09:23:29.042Z,1019.65
2018-11-27T09:24:28.899Z,1019.6
2018-11-27T09:25:28.933Z,1019.65
2018-11-27T09:26:29.020Z,1019.65
2018-11-27T09:27:28.898Z,1019.65
2018-11-27T09:28:29.004Z,1019.61
2018-11-27T09:29:29.001Z,1019.67
2018-11-27T09:30:28.968Z,1019.67
2018-11-27T09:31:29.014Z,1019.65
2018-11-27T09:32:28.935Z,1019.68
2018-11-27T09:33:28.963Z,1019.69
2018-11-27T09:34:28.809Z,1019.74
2018-11-27T09:35:29.395Z,1019.73
2018-11-27T09:36:28.773Z,1019.75
2018-11-27T09:37:29.051Z,1019.74
2018-11-27T09:38:28.923Z,1019.71
2018-11-27T09:39:29.114Z,1019.75
2018-11-27T09:40:28.991Z,1019.76
2018-11-27T09:41:28.822Z,1019.77
2018-11-27T09:42:29.060Z,1019.77
2018-11-27T09:43:28.879Z,1019.85
2018-11-27T09:44:28.849Z,1019.81
2018-11-27T09:45:28.848Z,1019.78
2018-11-27T09:46:28.935Z,1019.74
2018-11-27T09:47:28.783Z,1019.77
2018-11-27T09:48:28.813Z,1019.77
2018-11-27T09:49:28.949Z,1019.8
2018-11-27T09:50:29.008Z,1019.78
2018-11-27T09:51:28.833Z,1019.8
2018-11-27T09:52:29.043Z,1019.79
2018-11-27T09:53:28.751Z,1019.82
2018-11-27T09:54:29.190Z,1019.82
2018-11-27T09:55:28.919Z,1019.83
2018-11-27T09:56:28.761Z,1019.81
2018-11-27T09:57:28.805Z,1019.79
2018-11-27T09:58:28.912Z,1019.81
2018-11-27T09:59:29.012Z,1019.77
2018-11-27T10:00:28.890Z,1019.82
2018-11-27T10:01:28.744Z,1019.84
2018-11-27T10:02:29.314Z,1019.8
2018-11-27T10:03:28.729Z,1019.84
2018-11-27T10:04:28.777Z,1019.78
2018-11-27T10:05:29.137Z,1019.85
2018-11-27T10:06:28.749Z,1019.81
2018-11-27T10:07:28.760Z,1019.86
2018-11-27T10:08:28.907Z,1019.84
2018-11-27T10:09:28.989Z,1019.91
2018-11-27T10:10:29.029Z,1019.91
2018-11-27T10:11:28.802Z,1019.84
2018-11-27T10:12:29.163Z,1019.87
2018-11-27T10:13:28.738Z,1019.86
2018-11-27T10:14:28.850Z,1019.9
2018-11-27T10:15:28.831Z,1019.98
2018-11-27T10:16:28.765Z,1019.9
2018-11-27T10:17:28.972Z,1019.93
2018-11-27T10:18:29.020Z,1020
2018-11-27T10:19:29.563Z,1019.96
2018-11-27T10:20:28.903Z,1019.98
2018-11-27T10:21:28.734Z,1019.98
2018-11-27T10:22:28.769Z,1020.02
2018-11-27T10:23:28.867Z,1020
2018-11-27T10:24:29.091Z,1020.05
2018-11-27T10:25:28.723Z,1020.02
2018-11-27T10:26:28.857Z,1020.04
2018-11-27T10:27:28.708Z,1020
2018-11-27T10:28:32.262Z,1020.04
2018-11-27T10:29:28.726Z,1020.03
2018-11-27T10:30:28.750Z,1020.06
2018-11-27T10:31:28.732Z,1020.05
2018-11-27T10:32:28.923Z,1020.07
2018-11-27T10:33:28.767Z,1020.01
2018-11-27T10:34:28.726Z,1020
2018-11-27T10:35:28.687Z,1020.09
2018-11-27T10:36:28.723Z,1020.08
2018-11-27T10:37:28.700Z,1020
2018-11-27T10:38:28.719Z,1020.01
2018-11-27T10:39:28.814Z,1019.98
2018-11-27T10:40:28.839Z,1020.04
2018-11-27T10:41:28.724Z,1019.97
2018-11-27T10:42:30.397Z,1019.97
2018-11-27T10:43:28.721Z,1020.01
2018-11-27T10:44:28.991Z,1019.98
2018-11-27T10:45:28.827Z,1019.96
2018-11-27T10:46:28.884Z,1019.97
2018-11-27T10:47:28.768Z,1019.98
2018-11-27T10:48:28.931Z,1019.96
2018-11-27T10:49:28.755Z,1019.93
2018-11-27T10:50:28.766Z,1019.93
2018-11-27T10:51:28.772Z,1019.96
2018-11-27T10:52:28.669Z,1019.92
2018-11-27T10:53:28.680Z,1019.92
2018-11-27T10:54:29.100Z,1019.94
2018-11-27T10:55:28.788Z,1019.98
2018-11-27T10:56:28.740Z,1019.96
2018-11-27T10:57:28.892Z,1019.99
2018-11-27T10:58:28.779Z,1019.99
2018-11-27T10:59:28.906Z,1019.96
2018-11-27T11:00:29.013Z,1020.02
2018-11-27T11:01:28.671Z,1019.96
2018-11-27T11:02:28.712Z,1020.01
2018-11-27T11:03:28.652Z,1019.97
2018-11-27T11:04:28.759Z,1019.97
2018-11-27T11:05:28.829Z,1019.95
2018-11-27T11:06:28.980Z,1020.02
2018-11-27T11:07:28.653Z,1020.02
2018-11-27T11:08:28.754Z,1020.04
2018-11-27T11:09:29.058Z,1020.06
2018-11-27T11:10:29.308Z,1020.08
2018-11-27T11:11:28.738Z,1020.11
2018-11-27T11:12:28.842Z,1020.12
2018-11-27T11:13:28.711Z,1020.08
2018-11-27T11:14:28.639Z,1020.06
2018-11-27T11:15:28.760Z,1020.07
2018-11-27T11:16:29.770Z,1020.09
2018-11-27T11:17:28.652Z,1020.1
2018-11-27T11:18:28.670Z,1020.09
2018-11-27T11:19:28.674Z,1020.09
2018-11-27T11:20:28.685Z,1020.11
2018-11-27T11:21:28.814Z,1020.12
2018-11-27T11:22:28.918Z,1020.11
2018-11-27T11:23:28.690Z,1020.15
2018-11-27T11:24:28.756Z,1020.13
2018-11-27T11:25:28.632Z,1020.14
2018-11-27T11:26:28.643Z,1020.16
2018-11-27T11:27:28.679Z,1020.17
2018-11-27T11:28:28.715Z,1020.13
2018-11-27T11:29:28.804Z,1020.11
2018-11-27T11:30:29.037Z,1020.05
2018-11-27T11:31:28.759Z,1020.07
2018-11-27T11:32:28.887Z,1020.04
2018-11-27T11:33:28.760Z,1020.07
2018-11-27T11:34:29.108Z,1020.09
2018-11-27T11:35:28.599Z,1020.04
2018-11-27T11:36:29.055Z,1020.08
2018-11-27T11:37:28.696Z,1020.09
2018-11-27T11:38:29.002Z,1020.01
2018-11-27T11:39:28.666Z,1020.06
2018-11-27T11:40:29.275Z,1020.07
2018-11-27T11:41:31.522Z,1020.03
2018-11-27T11:42:28.714Z,1020.06
2018-11-27T11:43:28.753Z,1020.07
2018-11-27T11:44:28.629Z,1020.08
2018-11-27T11:45:28.665Z,1020.1
2018-11-27T11:46:28.639Z,1020.14
2018-11-27T11:47:28.622Z,1020.12
2018-11-27T11:48:29.006Z,1020.09
2018-11-27T11:49:28.930Z,1020.12
2018-11-27T11:50:28.705Z,1020.15
2018-11-27T11:51:29.014Z,1020.09
2018-11-27T11:52:28.676Z,1020.12
2018-11-27T11:53:28.615Z,1020.16
2018-11-27T11:54:28.723Z,1020.21
2018-11-27T11:55:28.687Z,1020.19
2018-11-27T11:56:28.814Z,1020.16
2018-11-27T11:57:28.642Z,1020.22
2018-11-27T11:58:28.589Z,1020.21
2018-11-27T11:59:29.005Z,1020.23
2018-11-27T12:00:28.573Z,1020.24
2018-11-27T12:01:28.574Z,1020.26
2018-11-27T12:02:34.081Z,1020.23
2018-11-27T12:03:28.606Z,1020.26
2018-11-27T12:04:28.613Z,1020.32
2018-11-27T12:05:28.611Z,1020.26
2018-11-27T12:06:28.576Z,1020.35
2018-11-27T12:07:28.679Z,1020.34
2018-11-27T12:08:28.712Z,1020.33